PWSweather.com
Personal Weather Stations
Station Observations

ChardChardGB

Lat: 50.877408, Lon: -2.94964741

Elevation: 341

Station Type: WS3083

http://www.merriott-astro.co.uk/weather/index.htm

High Low Average
Temperature 63.3°F17.4°C 52.3°F11.3°C 57.0°F13.9°C
Dew Point 55.2°F12.9°C 49.8°F9.9°C 51.9°F11.1°C
Winds 11.9 mph 19.2 kmh 1.2 mph 1.9 kmh 5.0 mph SSW8.0 kmh SSW
Wind Gusts 17.4 mph28.0 kmh 2.2 mph3.5 kmh 8.0 mph12.9 kmh
Humidity 92% 72% 83%
Pressure 29.91 in1012.9 mb 28.99 in981.7 mb -
Precipitation 0.02 in0.5 mm - -
Hour Temp Dew Point Humidity Winds Wind Gusts Pressure Precip Precip Rate Daily Precip Total
12:00 AM 56.5°F13.6°C 50.7°F10.4°C 81% 5.8 mph SSE9.3 kmh SSE 9.2 mph14.8 kmh 29.05 in983.7 mb 0.00 in0.0 mm 0.00 in0.0 mm 0.00 in0.0 mm
12:10 AM 56.1°F13.4°C 50.4°F10.2°C 81% 5.8 mph SSW9.3 kmh SSW 9.2 mph14.8 kmh 29.04 in983.4 mb 0.00 in0.0 mm 0.00 in0.0 mm 0.00 in0.0 mm
12:20 AM 56.1°F13.4°C 50.7°F10.4°C 82% 6.1 mph S9.8 kmh S 9.2 mph14.8 kmh 29.04 in983.4 mb 0.00 in0.0 mm 0.00 in0.0 mm 0.00 in0.0 mm
12:30 AM 55.8°F13.2°C 50.7°F10.4°C 83% 5.4 mph S8.7 kmh S 7.6 mph12.2 kmh 29.04 in983.4 mb 0.00 in0.0 mm 0.00 in0.0 mm 0.00 in0.0 mm
12:40 AM 55.9°F13.3°C 50.9°F10.5°C 83% 5.9 mph SSW9.5 kmh SSW 8.3 mph13.4 kmh 29.04 in983.4 mb 0.00 in0.0 mm 0.00 in0.0 mm 0.00 in0.0 mm
12:50 AM 55.9°F13.3°C 50.9°F10.5°C 83% 6.6 mph SSW10.6 kmh SSW 10.7 mph17.2 kmh 29.04 in983.4 mb 0.00 in0.0 mm 0.00 in0.0 mm 0.00 in0.0 mm
01:00 AM 55.9°F13.3°C 50.9°F10.5°C 83% 6.1 mph S9.8 kmh S 8.3 mph13.4 kmh 29.04 in983.4 mb 0.00 in0.0 mm 0.00 in0.0 mm 0.00 in0.0 mm
01:10 AM 55.9°F13.3°C 50.9°F10.5°C 83% 5.0 mph SSW8.0 kmh SSW 7.6 mph12.2 kmh 29.04 in983.4 mb 0.00 in0.0 mm 0.00 in0.0 mm 0.00 in0.0 mm
01:20 AM 55.9°F13.3°C 50.9°F10.5°C 83% 6.4 mph S10.3 kmh S 9.8 mph15.8 kmh 29.04 in983.4 mb 0.00 in0.0 mm 0.00 in0.0 mm 0.00 in0.0 mm
01:30 AM 55.9°F13.3°C 50.5°F10.3°C 82% 5.0 mph S8.0 kmh S 8.3 mph13.4 kmh 29.04 in983.4 mb 0.00 in0.0 mm 0.00 in0.0 mm 0.00 in0.0 mm
01:40 AM 56.1°F13.4°C 50.7°F10.4°C 82% 6.2 mph SW10.0 kmh SW 7.6 mph12.2 kmh 29.03 in983.1 mb 0.00 in0.0 mm 0.00 in0.0 mm 0.00 in0.0 mm
01:50 AM 55.9°F13.3°C 50.5°F10.3°C 82% 5.0 mph SSW8.0 kmh SSW 8.3 mph13.4 kmh 29.04 in983.4 mb 0.00 in0.0 mm 0.00 in0.0 mm 0.00 in0.0 mm
02:00 AM 55.9°F13.3°C 50.5°F10.3°C 82% 4.6 mph SSW7.4 kmh SSW 5.4 mph8.7 kmh 29.03 in983.1 mb 0.00 in0.0 mm 0.00 in0.0 mm 0.00 in0.0 mm
02:10 AM 55.8°F13.2°C 50.4°F10.2°C 82% 5.7 mph S9.2 kmh S 7.6 mph12.2 kmh 29.03 in983.1 mb 0.00 in0.0 mm 0.00 in0.0 mm 0.00 in0.0 mm
02:20 AM 55.6°F13.1°C 50.5°F10.3°C 83% 4.6 mph S7.4 kmh S 6.0 mph9.7 kmh 29.03 in983.1 mb 0.00 in0.0 mm 0.00 in0.0 mm 0.00 in0.0 mm
02:30 AM 54.9°F12.7°C 50.1°F10.1°C 84% 3.2 mph S5.1 kmh S 5.4 mph8.7 kmh 29.03 in983.1 mb 0.00 in0.0 mm 0.00 in0.0 mm 0.00 in0.0 mm
02:40 AM 54.7°F12.6°C 50.3°F10.2°C 85% 4.2 mph SSE6.8 kmh SSE 7.6 mph12.2 kmh 29.03 in983.1 mb 0.00 in0.0 mm 0.00 in0.0 mm 0.00 in0.0 mm
02:50 AM 55.2°F12.9°C 50.8°F10.4°C 85% 5.3 mph SSW8.5 kmh SSW 7.6 mph12.2 kmh 29.02 in982.7 mb 0.00 in0.0 mm 0.00 in0.0 mm 0.00 in0.0 mm
03:00 AM 55.6°F13.1°C 50.8°F10.4°C 84% 6.6 mph SSW10.6 kmh SSW 9.8 mph15.8 kmh 29.02 in982.7 mb 0.00 in0.0 mm 0.00 in0.0 mm 0.00 in0.0 mm
03:10 AM 55.8°F13.2°C 51.0°F10.6°C 84% 5.9 mph S9.5 kmh S 9.8 mph15.8 kmh 29.03 in983.1 mb 0.00 in0.0 mm 0.00 in0.0 mm 0.00 in0.0 mm
03:20 AM 55.8°F13.2°C 51.0°F10.6°C 84% 6.2 mph S10.0 kmh S 8.3 mph13.4 kmh 29.02 in982.7 mb 0.00 in0.0 mm 0.00 in0.0 mm 0.00 in0.0 mm
03:30 AM 55.9°F13.3°C 51.2°F10.7°C 84% 5.1 mph SW8.2 kmh SW 9.2 mph14.8 kmh 29.02 in982.7 mb 0.00 in0.0 mm 0.00 in0.0 mm 0.00 in0.0 mm
03:40 AM 56.3°F13.5°C 51.5°F10.8°C 84% 5.8 mph S9.3 kmh S 8.3 mph13.4 kmh 29.02 in982.7 mb 0.00 in0.0 mm 0.00 in0.0 mm 0.00 in0.0 mm
03:50 AM 56.3°F13.5°C 51.2°F10.7°C 83% 8.6 mph S13.8 kmh S 10.7 mph17.2 kmh 29.02 in982.7 mb 0.00 in0.0 mm 0.00 in0.0 mm 0.00 in0.0 mm
04:00 AM 56.3°F13.5°C 51.2°F10.7°C 83% 6.4 mph S10.3 kmh S 9.2 mph14.8 kmh 29.02 in982.7 mb 0.00 in0.0 mm 0.00 in0.0 mm 0.00 in0.0 mm
04:10 AM 56.1°F13.4°C 51.0°F10.6°C 83% 6.6 mph SW10.6 kmh SW 9.8 mph15.8 kmh 29.02 in982.7 mb 0.00 in0.0 mm 0.00 in0.0 mm 0.00 in0.0 mm
04:20 AM 56.1°F13.4°C 51.0°F10.6°C 83% 6.0 mph SSW9.7 kmh SSW 9.2 mph14.8 kmh 29.01 in982.4 mb 0.00 in0.0 mm 0.00 in0.0 mm 0.00 in0.0 mm
04:30 AM 56.1°F13.4°C 51.0°F10.6°C 83% 7.0 mph SSW11.3 kmh SSW 9.8 mph15.8 kmh 29.01 in982.4 mb 0.00 in0.0 mm 0.00 in0.0 mm 0.00 in0.0 mm
04:40 AM 56.1°F13.4°C 51.0°F10.6°C 83% 7.0 mph S11.3 kmh S 9.8 mph15.8 kmh 29.01 in982.4 mb 0.00 in0.0 mm 0.00 in0.0 mm 0.00 in0.0 mm
04:50 AM 56.1°F13.4°C 51.0°F10.6°C 83% 7.4 mph SW11.9 kmh SW 13.0 mph20.9 kmh 29.00 in982.1 mb 0.00 in0.0 mm 0.00 in0.0 mm 0.00 in0.0 mm
05:00 AM 55.9°F13.3°C 50.9°F10.5°C 83% 5.5 mph SSW8.9 kmh SSW 9.2 mph14.8 kmh 29.01 in982.4 mb 0.00 in0.0 mm 0.00 in0.0 mm 0.00 in0.0 mm
05:10 AM 55.8°F13.2°C 51.0°F10.6°C 84% 5.9 mph SSW9.5 kmh SSW 8.3 mph13.4 kmh 29.00 in982.1 mb 0.00 in0.0 mm 0.00 in0.0 mm 0.00 in0.0 mm
05:20 AM 55.9°F13.3°C 50.9°F10.5°C 83% 5.6 mph SW9.0 kmh SW 8.3 mph13.4 kmh 29.01 in982.4 mb 0.00 in0.0 mm 0.00 in0.0 mm 0.00 in0.0 mm
05:30 AM 55.9°F13.3°C 50.5°F10.3°C 82% 5.9 mph S9.5 kmh S 9.2 mph14.8 kmh 29.00 in982.1 mb 0.00 in0.0 mm 0.00 in0.0 mm 0.00 in0.0 mm
05:40 AM 55.9°F13.3°C 50.5°F10.3°C 82% 6.0 mph SW9.7 kmh SW 9.2 mph14.8 kmh 29.00 in982.1 mb 0.00 in0.0 mm 0.00 in0.0 mm 0.00 in0.0 mm
05:50 AM 56.1°F13.4°C 51.0°F10.6°C 83% 5.4 mph SSW8.7 kmh SSW 9.8 mph15.8 kmh 29.00 in982.1 mb 0.00 in0.0 mm 0.00 in0.0 mm 0.00 in0.0 mm
06:00 AM 56.3°F13.5°C 51.2°F10.7°C 83% 6.7 mph SSW10.8 kmh SSW 9.8 mph15.8 kmh 29.00 in982.1 mb 0.00 in0.0 mm 0.00 in0.0 mm 0.00 in0.0 mm
06:10 AM 56.3°F13.5°C 51.2°F10.7°C 83% 6.4 mph S10.3 kmh S 8.3 mph13.4 kmh 29.00 in982.1 mb 0.00 in0.0 mm 0.00 in0.0 mm 0.00 in0.0 mm
06:20 AM 56.3°F13.5°C 51.2°F10.7°C 83% 8.1 mph S13.0 kmh S 13.0 mph20.9 kmh 29.00 in982.1 mb 0.00 in0.0 mm 0.00 in0.0 mm 0.00 in0.0 mm
06:30 AM 56.3°F13.5°C 51.5°F10.8°C 84% 5.6 mph SSW9.0 kmh SSW 8.3 mph13.4 kmh 29.00 in982.1 mb 0.00 in0.0 mm 0.00 in0.0 mm 0.00 in0.0 mm
06:40 AM 56.5°F13.6°C 52.0°F11.1°C 85% 6.9 mph S11.1 kmh S 10.7 mph17.2 kmh 29.00 in982.1 mb 0.00 in0.0 mm 0.00 in0.0 mm 0.00 in0.0 mm
06:50 AM 56.8°F13.8°C 52.4°F11.3°C 85% 6.3 mph SW10.1 kmh SW 9.8 mph15.8 kmh 28.99 in981.7 mb 0.00 in0.0 mm 0.00 in0.0 mm 0.00 in0.0 mm
07:00 AM 57.2°F14.0°C 52.4°F11.3°C 84% 5.7 mph SSW9.2 kmh SSW 7.6 mph12.2 kmh 29.00 in982.1 mb 0.00 in0.0 mm 0.00 in0.0 mm 0.00 in0.0 mm
07:10 AM 57.4°F14.1°C 52.3°F11.3°C 83% 7.1 mph SSW11.4 kmh SSW 13.0 mph20.9 kmh 29.00 in982.1 mb 0.00 in0.0 mm 0.00 in0.0 mm 0.00 in0.0 mm
07:20 AM 57.7°F14.3°C 52.6°F11.4°C 83% 7.1 mph S11.4 kmh S 10.7 mph17.2 kmh 29.00 in982.1 mb 0.00 in0.0 mm 0.00 in0.0 mm 0.00 in0.0 mm
07:30 AM 57.9°F14.4°C 52.5°F11.4°C 82% 6.6 mph S10.6 kmh S 10.7 mph17.2 kmh 29.00 in982.1 mb 0.00 in0.0 mm 0.00 in0.0 mm 0.00 in0.0 mm
07:40 AM 58.1°F14.5°C 52.6°F11.4°C 82% 6.7 mph SW10.8 kmh SW 10.7 mph17.2 kmh 29.00 in982.1 mb 0.00 in0.0 mm 0.00 in0.0 mm 0.00 in0.0 mm
07:50 AM 58.5°F14.7°C 53.0°F11.7°C 82% 7.9 mph SSW12.7 kmh SSW 10.7 mph17.2 kmh 29.00 in982.1 mb 0.00 in0.0 mm 0.00 in0.0 mm 0.00 in0.0 mm
08:00 AM 59.0°F15.0°C 53.2°F11.8°C 81% 8.2 mph SSW13.2 kmh SSW 15.2 mph24.5 kmh 29.00 in982.1 mb 0.00 in0.0 mm 0.00 in0.0 mm 0.00 in0.0 mm
08:10 AM 59.4°F15.2°C 53.2°F11.8°C 80% 8.7 mph S14.0 kmh S 13.0 mph20.9 kmh 29.00 in982.1 mb 0.00 in0.0 mm 0.00 in0.0 mm 0.00 in0.0 mm
08:20 AM 59.2°F15.1°C 53.4°F11.9°C 81% 6.3 mph S10.1 kmh S 10.7 mph17.2 kmh 29.00 in982.1 mb 0.00 in0.0 mm 0.00 in0.0 mm 0.00 in0.0 mm
08:30 AM 59.5°F15.3°C 54.1°F12.3°C 82% 6.9 mph S11.1 kmh S 9.8 mph15.8 kmh 29.01 in982.4 mb 0.00 in0.0 mm 0.00 in0.0 mm 0.00 in0.0 mm
08:40 AM 59.9°F15.5°C 54.1°F12.3°C 81% 7.4 mph SSW11.9 kmh SSW 15.2 mph24.5 kmh 29.00 in982.1 mb 0.00 in0.0 mm 0.00 in0.0 mm 0.00 in0.0 mm
08:50 AM 60.1°F15.6°C 53.9°F12.2°C 80% 7.0 mph SW11.3 kmh SW 9.8 mph15.8 kmh 29.00 in982.1 mb 0.00 in0.0 mm 0.00 in0.0 mm 0.00 in0.0 mm
09:00 AM 60.4°F15.8°C 53.6°F12.0°C 78% 8.4 mph SW13.5 kmh SW 11.4 mph18.3 kmh 29.00 in982.1 mb 0.00 in0.0 mm 0.00 in0.0 mm 0.00 in0.0 mm
09:10 AM 63.0°F17.2°C 54.2°F12.3°C 73% 6.3 mph S10.1 kmh S 8.3 mph13.4 kmh 29.01 in982.4 mb 0.00 in0.0 mm 0.00 in0.0 mm 0.00 in0.0 mm
09:30 AM 55.8°F13.2°C 50.7°F10.4°C 83% 4.5 mph S7.2 kmh S 4.5 mph7.2 kmh 29.76 in1007.8 mb 0.00 in0.0 mm 0.00 in0.0 mm 0.00 in0.0 mm
10:00 AM 55.9°F13.3°C 50.5°F10.3°C 82% 3.8 mph E6.1 kmh E 3.8 mph6.1 kmh 29.76 in1007.8 mb 0.00 in0.0 mm 0.00 in0.0 mm 0.00 in0.0 mm
01:31 PM 63.3°F17.4°C 54.1°F12.3°C 72% 5.4 mph S8.7 kmh S 5.4 mph8.7 kmh 29.76 in1007.8 mb 0.00 in0.0 mm 0.00 in0.0 mm 0.00 in0.0 mm
01:40 PM 61.9°F16.6°C 53.9°F12.2°C 75% 7.1 mph SW11.4 kmh SW 10.7 mph17.2 kmh 29.76 in1007.8 mb 0.00 in0.0 mm 0.00 in0.0 mm 0.00 in0.0 mm
01:50 PM 62.8°F17.1°C 54.0°F12.2°C 73% 8.7 mph WSW14.0 kmh WSW 11.4 mph18.3 kmh 29.76 in1007.8 mb 0.00 in0.0 mm 0.00 in0.0 mm 0.00 in0.0 mm
02:00 PM 63.1°F17.3°C 54.0°F12.2°C 72% 10.0 mph SSE16.1 kmh SSE 16.8 mph27.0 kmh 29.75 in1007.5 mb 0.00 in0.0 mm 0.00 in0.0 mm 0.00 in0.0 mm
02:10 PM 63.3°F17.4°C 54.2°F12.3°C 72% 10.1 mph S16.3 kmh S 14.5 mph23.3 kmh 29.76 in1007.8 mb 0.00 in0.0 mm 0.00 in0.0 mm 0.00 in0.0 mm
02:20 PM 62.1°F16.7°C 53.3°F11.8°C 73% 8.3 mph SW13.4 kmh SW 12.1 mph19.5 kmh 29.77 in1008.1 mb 0.00 in0.0 mm 0.00 in0.0 mm 0.00 in0.0 mm
02:30 PM 61.2°F16.2°C 54.3°F12.4°C 78% 11.9 mph SW19.2 kmh SW 17.4 mph28.0 kmh 29.76 in1007.8 mb 0.00 in0.0 mm 0.00 in0.0 mm 0.00 in0.0 mm
02:40 PM 62.4°F16.9°C 54.8°F12.7°C 76% 9.1 mph SW14.6 kmh SW 14.5 mph23.3 kmh 29.77 in1008.1 mb 0.00 in0.0 mm 0.00 in0.0 mm 0.00 in0.0 mm
02:50 PM 61.2°F16.2°C 53.9°F12.2°C 77% 9.0 mph WSW14.5 kmh WSW 12.1 mph19.5 kmh 29.77 in1008.1 mb 0.00 in0.0 mm 0.00 in0.0 mm 0.00 in0.0 mm
03:00 PM 60.6°F15.9°C 54.4°F12.4°C 80% 8.5 mph SW13.7 kmh SW 15.2 mph24.5 kmh 29.77 in1008.1 mb 0.00 in0.0 mm 0.00 in0.0 mm 0.00 in0.0 mm
03:10 PM 61.0°F16.1°C 54.4°F12.4°C 79% 8.6 mph SW13.8 kmh SW 11.4 mph18.3 kmh 29.77 in1008.1 mb 0.00 in0.0 mm 0.00 in0.0 mm 0.00 in0.0 mm
03:20 PM 60.8°F16.0°C 54.3°F12.4°C 79% 7.6 mph SW12.2 kmh SW 10.7 mph17.2 kmh 29.77 in1008.1 mb 0.00 in0.0 mm 0.00 in0.0 mm 0.00 in0.0 mm
03:30 PM 60.6°F15.9°C 54.4°F12.4°C 80% 7.1 mph SSW11.4 kmh SSW 10.7 mph17.2 kmh 29.77 in1008.1 mb 0.00 in0.0 mm 0.00 in0.0 mm 0.00 in0.0 mm
03:40 PM 60.6°F15.9°C 54.4°F12.4°C 80% 6.4 mph SSW10.3 kmh SSW 11.4 mph18.3 kmh 29.77 in1008.1 mb 0.00 in0.0 mm 0.00 in0.0 mm 0.00 in0.0 mm
03:50 PM 60.4°F15.8°C 54.3°F12.4°C 80% 5.8 mph WSW9.3 kmh WSW 10.7 mph17.2 kmh 29.77 in1008.1 mb 0.00 in0.0 mm 0.00 in0.0 mm 0.00 in0.0 mm
04:00 PM 59.5°F15.3°C 54.1°F12.3°C 82% 6.3 mph WSW10.1 kmh WSW 10.7 mph17.2 kmh 29.78 in1008.5 mb 0.01 in0.3 mm 0.01 in0.3 mm 0.01 in0.3 mm
04:10 PM 59.2°F15.1°C 55.0°F12.8°C 86% 4.2 mph WSW6.8 kmh WSW 5.4 mph8.7 kmh 29.78 in1008.5 mb 0.02 in0.5 mm 0.06 in1.5 mm 0.02 in0.5 mm
04:20 PM 60.1°F15.6°C 55.2°F12.9°C 84% 6.0 mph WSW9.7 kmh WSW 10.7 mph17.2 kmh 29.78 in1008.5 mb 0.02 in0.5 mm 0.00 in0.0 mm 0.02 in0.5 mm
04:30 PM 59.7°F15.4°C 53.6°F12.0°C 80% 7.4 mph S11.9 kmh S 12.1 mph19.5 kmh 29.78 in1008.5 mb 0.02 in0.5 mm 0.00 in0.0 mm 0.02 in0.5 mm
04:40 PM 59.4°F15.2°C 53.2°F11.8°C 80% 5.5 mph SW8.9 kmh SW 9.2 mph14.8 kmh 29.79 in1008.8 mb 0.02 in0.5 mm 0.00 in0.0 mm 0.02 in0.5 mm
04:50 PM 59.2°F15.1°C 53.0°F11.7°C 80% 5.8 mph SW9.3 kmh SW 7.6 mph12.2 kmh 29.79 in1008.8 mb 0.02 in0.5 mm 0.00 in0.0 mm 0.02 in0.5 mm
05:00 PM 59.0°F15.0°C 52.9°F11.6°C 80% 4.1 mph WSW6.6 kmh WSW 7.6 mph12.2 kmh 29.80 in1009.1 mb 0.01 in0.3 mm 0.00 in0.0 mm 0.02 in0.5 mm
05:10 PM 58.5°F14.7°C 53.0°F11.7°C 82% 6.5 mph SW10.5 kmh SW 9.2 mph14.8 kmh 29.80 in1009.1 mb 0.00 in0.0 mm 0.00 in0.0 mm 0.02 in0.5 mm
05:20 PM 58.1°F14.5°C 53.3°F11.8°C 84% 3.9 mph SW6.3 kmh SW 5.4 mph8.7 kmh 29.80 in1009.1 mb 0.00 in0.0 mm 0.00 in0.0 mm 0.02 in0.5 mm
05:30 PM 57.9°F14.4°C 53.1°F11.7°C 84% 4.0 mph SW6.4 kmh SW 8.3 mph13.4 kmh 29.81 in1009.5 mb 0.00 in0.0 mm 0.00 in0.0 mm 0.02 in0.5 mm
05:40 PM 57.7°F14.3°C 52.3°F11.3°C 82% 4.5 mph SW7.2 kmh SW 6.9 mph11.1 kmh 29.81 in1009.5 mb 0.00 in0.0 mm 0.00 in0.0 mm 0.02 in0.5 mm
05:50 PM 57.2°F14.0°C 52.1°F11.2°C 83% 3.8 mph SSW6.1 kmh SSW 5.4 mph8.7 kmh 29.81 in1009.5 mb 0.00 in0.0 mm 0.00 in0.0 mm 0.02 in0.5 mm
06:00 PM 57.0°F13.9°C 52.2°F11.2°C 84% 2.4 mph SSW3.9 kmh SSW 3.8 mph6.1 kmh 29.80 in1009.1 mb 0.00 in0.0 mm 0.00 in0.0 mm 0.02 in0.5 mm
06:10 PM 57.0°F13.9°C 52.2°F11.2°C 84% 3.7 mph S6.0 kmh S 5.4 mph8.7 kmh 29.81 in1009.5 mb 0.00 in0.0 mm 0.00 in0.0 mm 0.02 in0.5 mm
06:20 PM 57.0°F13.9°C 52.2°F11.2°C 84% 4.4 mph SSW7.1 kmh SSW 9.8 mph15.8 kmh 29.82 in1009.8 mb 0.00 in0.0 mm 0.00 in0.0 mm 0.02 in0.5 mm
06:30 PM 56.8°F13.8°C 52.1°F11.2°C 84% 4.0 mph SW6.4 kmh SW 6.0 mph9.7 kmh 29.82 in1009.8 mb 0.00 in0.0 mm 0.00 in0.0 mm 0.02 in0.5 mm
06:40 PM 56.7°F13.7°C 51.9°F11.1°C 84% 3.7 mph SW6.0 kmh SW 5.4 mph8.7 kmh 29.83 in1010.2 mb 0.00 in0.0 mm 0.00 in0.0 mm 0.02 in0.5 mm
06:50 PM 56.3°F13.5°C 51.5°F10.8°C 84% 3.0 mph S4.8 kmh S 6.0 mph9.7 kmh 29.84 in1010.5 mb 0.00 in0.0 mm 0.00 in0.0 mm 0.02 in0.5 mm
07:00 PM 56.1°F13.4°C 51.4°F10.8°C 84% 2.1 mph SW3.4 kmh SW 5.4 mph8.7 kmh 29.84 in1010.5 mb 0.00 in0.0 mm 0.00 in0.0 mm 0.02 in0.5 mm
07:10 PM 55.8°F13.2°C 51.3°F10.7°C 85% 2.8 mph SW4.5 kmh SW 3.8 mph6.1 kmh 29.83 in1010.2 mb 0.00 in0.0 mm 0.00 in0.0 mm 0.02 in0.5 mm
07:20 PM 55.6°F13.1°C 51.2°F10.7°C 85% 2.5 mph S4.0 kmh S 3.8 mph6.1 kmh 29.85 in1010.8 mb 0.00 in0.0 mm 0.00 in0.0 mm 0.02 in0.5 mm
07:30 PM 55.4°F13.0°C 51.3°F10.7°C 86% 2.2 mph S3.5 kmh S 3.8 mph6.1 kmh 29.84 in1010.5 mb 0.00 in0.0 mm 0.00 in0.0 mm 0.02 in0.5 mm
07:40 PM 54.9°F12.7°C 50.8°F10.4°C 86% 1.2 mph S1.9 kmh S 2.2 mph3.5 kmh 29.85 in1010.8 mb 0.00 in0.0 mm 0.00 in0.0 mm 0.02 in0.5 mm
07:50 PM 54.7°F12.6°C 51.2°F10.7°C 88% 2.0 mph S3.2 kmh S 4.5 mph7.2 kmh 29.86 in1011.2 mb 0.00 in0.0 mm 0.00 in0.0 mm 0.02 in0.5 mm
08:00 PM 54.7°F12.6°C 51.2°F10.7°C 88% 1.8 mph SSE2.9 kmh SSE 3.1 mph5.0 kmh 29.86 in1011.2 mb 0.00 in0.0 mm 0.00 in0.0 mm 0.02 in0.5 mm
08:10 PM 54.7°F12.6°C 51.2°F10.7°C 88% 2.4 mph SSW3.9 kmh SSW 3.8 mph6.1 kmh 29.87 in1011.5 mb 0.00 in0.0 mm 0.00 in0.0 mm 0.02 in0.5 mm
08:20 PM 54.5°F12.5°C 51.0°F10.6°C 88% 1.8 mph SW2.9 kmh SW 3.1 mph5.0 kmh 29.87 in1011.5 mb 0.00 in0.0 mm 0.00 in0.0 mm 0.02 in0.5 mm
08:30 PM 54.9°F12.7°C 51.4°F10.8°C 88% 3.1 mph SW5.0 kmh SW 4.5 mph7.2 kmh 29.88 in1011.9 mb 0.00 in0.0 mm 0.00 in0.0 mm 0.02 in0.5 mm
08:40 PM 54.7°F12.6°C 50.9°F10.5°C 87% 2.3 mph SW3.7 kmh SW 4.5 mph7.2 kmh 29.87 in1011.5 mb 0.00 in0.0 mm 0.00 in0.0 mm 0.02 in0.5 mm
08:50 PM 54.9°F12.7°C 51.1°F10.6°C 87% 3.8 mph SSW6.1 kmh SSW 6.0 mph9.7 kmh 29.88 in1011.9 mb 0.00 in0.0 mm 0.00 in0.0 mm 0.02 in0.5 mm
09:00 PM 54.7°F12.6°C 50.6°F10.3°C 86% 3.3 mph SW5.3 kmh SW 6.0 mph9.7 kmh 29.87 in1011.5 mb 0.00 in0.0 mm 0.00 in0.0 mm 0.02 in0.5 mm
09:10 PM 54.5°F12.5°C 50.7°F10.4°C 87% 3.1 mph S5.0 kmh S 3.8 mph6.1 kmh 29.88 in1011.9 mb 0.00 in0.0 mm 0.00 in0.0 mm 0.02 in0.5 mm
09:20 PM 54.5°F12.5°C 50.7°F10.4°C 87% 3.2 mph SSW5.1 kmh SSW 5.4 mph8.7 kmh 29.89 in1012.2 mb 0.00 in0.0 mm 0.00 in0.0 mm 0.02 in0.5 mm
09:30 PM 54.3°F12.4°C 51.5°F10.8°C 90% 3.0 mph S4.8 kmh S 5.4 mph8.7 kmh 29.89 in1012.2 mb 0.00 in0.0 mm 0.00 in0.0 mm 0.02 in0.5 mm
09:40 PM 54.3°F12.4°C 51.5°F10.8°C 90% 3.1 mph S5.0 kmh S 5.4 mph8.7 kmh 29.89 in1012.2 mb 0.00 in0.0 mm 0.00 in0.0 mm 0.02 in0.5 mm
09:50 PM 54.1°F12.3°C 51.6°F10.9°C 91% 3.3 mph SSW5.3 kmh SSW 4.5 mph7.2 kmh 29.89 in1012.2 mb 0.00 in0.0 mm 0.00 in0.0 mm 0.02 in0.5 mm
10:00 PM 54.5°F12.5°C 50.7°F10.4°C 87% 4.6 mph SSW7.4 kmh SSW 6.0 mph9.7 kmh 29.89 in1012.2 mb 0.00 in0.0 mm 0.00 in0.0 mm 0.02 in0.5 mm
10:10 PM 54.3°F12.4°C 51.5°F10.8°C 90% 3.8 mph S6.1 kmh S 5.4 mph8.7 kmh 29.90 in1012.5 mb 0.00 in0.0 mm 0.00 in0.0 mm 0.02 in0.5 mm
10:20 PM 54.5°F12.5°C 50.4°F10.2°C 86% 3.8 mph SSW6.1 kmh SSW 6.9 mph11.1 kmh 29.90 in1012.5 mb 0.00 in0.0 mm 0.00 in0.0 mm 0.02 in0.5 mm
10:30 PM 53.8°F12.1°C 50.9°F10.5°C 90% 2.9 mph S4.7 kmh S 4.5 mph7.2 kmh 29.90 in1012.5 mb 0.00 in0.0 mm 0.00 in0.0 mm 0.02 in0.5 mm
10:40 PM 54.3°F12.4°C 51.5°F10.8°C 90% 3.2 mph SSW5.1 kmh SSW 6.0 mph9.7 kmh 29.89 in1012.2 mb 0.00 in0.0 mm 0.00 in0.0 mm 0.02 in0.5 mm
10:50 PM 53.4°F11.9°C 50.6°F10.3°C 90% 2.9 mph SW4.7 kmh SW 5.4 mph8.7 kmh 29.90 in1012.5 mb 0.00 in0.0 mm 0.00 in0.0 mm 0.02 in0.5 mm
11:00 PM 54.1°F12.3°C 51.6°F10.9°C 91% 3.6 mph S5.8 kmh S 6.9 mph11.1 kmh 29.90 in1012.5 mb 0.00 in0.0 mm 0.00 in0.0 mm 0.02 in0.5 mm
11:10 PM 52.3°F11.3°C 49.8°F9.9°C 91% 4.0 mph SSW6.4 kmh SSW 5.4 mph8.7 kmh 29.90 in1012.5 mb 0.00 in0.0 mm 0.00 in0.0 mm 0.02 in0.5 mm
11:30 PM 54.0°F12.2°C 51.7°F10.9°C 92% 4.3 mph WSW6.9 kmh WSW 5.4 mph8.7 kmh 29.90 in1012.5 mb 0.00 in0.0 mm 0.00 in0.0 mm 0.02 in0.5 mm
11:31 PM 54.1°F12.3°C 51.9°F11.1°C 92% 4.4 mph SW7.1 kmh SW 5.4 mph8.7 kmh 29.90 in1012.5 mb 0.00 in0.0 mm 0.00 in0.0 mm 0.02 in0.5 mm
11:40 PM 54.1°F12.3°C 51.9°F11.1°C 92% 4.8 mph SSW7.7 kmh SSW 6.9 mph11.1 kmh 29.90 in1012.5 mb 0.00 in0.0 mm 0.00 in0.0 mm 0.02 in0.5 mm
11:50 PM 54.0°F12.2°C 51.4°F10.8°C 91% 4.0 mph S6.4 kmh S 7.6 mph12.2 kmh 29.91 in1012.9 mb 0.00 in0.0 mm 0.00 in0.0 mm 0.02 in0.5 mm